sensor_id;sensor_type;location;lat;lon;timestamp;P1;durP1;ratioP1;P2;durP2;ratioP2
4766;SDS011;2397;53.576;9.746;2023-04-24T00:00:46;8.70;;;7.83;;
4766;SDS011;2397;53.576;9.746;2023-04-24T00:03:13;9.93;;;8.67;;
4766;SDS011;2397;53.576;9.746;2023-04-24T00:05:40;8.33;;;7.13;;
4766;SDS011;2397;53.576;9.746;2023-04-24T00:08:07;8.50;;;7.70;;
4766;SDS011;2397;53.576;9.746;2023-04-24T00:10:34;8.73;;;7.83;;
4766;SDS011;2397;53.576;9.746;2023-04-24T00:13:00;8.70;;;7.73;;
4766;SDS011;2397;53.576;9.746;2023-04-24T00:15:27;8.97;;;8.20;;
4766;SDS011;2397;53.576;9.746;2023-04-24T00:17:53;8.47;;;7.67;;
4766;SDS011;2397;53.576;9.746;2023-04-24T00:20:21;8.30;;;7.50;;
4766;SDS011;2397;53.576;9.746;2023-04-24T00:22:47;9.17;;;8.30;;
4766;SDS011;2397;53.576;9.746;2023-04-24T00:25:14;9.00;;;8.10;;
4766;SDS011;2397;53.576;9.746;2023-04-24T00:27:40;8.80;;;8.00;;
4766;SDS011;2397;53.576;9.746;2023-04-24T00:30:07;8.47;;;7.67;;
4766;SDS011;2397;53.576;9.746;2023-04-24T00:32:34;8.80;;;7.40;;
4766;SDS011;2397;53.576;9.746;2023-04-24T00:35:01;9.87;;;8.03;;
4766;SDS011;2397;53.576;9.746;2023-04-24T00:37:28;8.13;;;7.27;;
4766;SDS011;2397;53.576;9.746;2023-04-24T00:39:55;8.67;;;7.70;;
4766;SDS011;2397;53.576;9.746;2023-04-24T00:42:22;8.50;;;7.70;;
4766;SDS011;2397;53.576;9.746;2023-04-24T00:44:49;7.90;;;7.20;;
4766;SDS011;2397;53.576;9.746;2023-04-24T00:47:16;8.67;;;6.83;;
4766;SDS011;2397;53.576;9.746;2023-04-24T00:49:44;8.07;;;7.30;;
4766;SDS011;2397;53.576;9.746;2023-04-24T00:52:11;7.73;;;7.03;;
4766;SDS011;2397;53.576;9.746;2023-04-24T00:54:38;7.67;;;6.93;;
4766;SDS011;2397;53.576;9.746;2023-04-24T00:57:05;8.20;;;7.50;;
4766;SDS011;2397;53.576;9.746;2023-04-24T00:59:32;7.53;;;6.80;;
4766;SDS011;2397;53.576;9.746;2023-04-24T01:01:59;8.03;;;7.13;;
4766;SDS011;2397;53.576;9.746;2023-04-24T01:04:25;8.13;;;7.00;;
4766;SDS011;2397;53.576;9.746;2023-04-24T01:06:53;7.83;;;7.13;;
4766;SDS011;2397;53.576;9.746;2023-04-24T01:09:21;7.00;;;6.33;;
4766;SDS011;2397;53.576;9.746;2023-04-24T01:11:49;7.37;;;6.77;;
4766;SDS011;2397;53.576;9.746;2023-04-24T01:14:16;7.07;;;6.47;;
4766;SDS011;2397;53.576;9.746;2023-04-24T01:16:43;8.10;;;5.73;;
4766;SDS011;2397;53.576;9.746;2023-04-24T01:19:10;6.77;;;6.17;;
4766;SDS011;2397;53.576;9.746;2023-04-24T01:21:38;6.00;;;5.50;;
4766;SDS011;2397;53.576;9.746;2023-04-24T01:24:05;5.90;;;5.40;;
4766;SDS011;2397;53.576;9.746;2023-04-24T01:26:32;6.20;;;5.70;;
4766;SDS011;2397;53.576;9.746;2023-04-24T01:28:59;5.23;;;4.83;;
4766;SDS011;2397;53.576;9.746;2023-04-24T01:31:25;6.33;;;5.20;;
4766;SDS011;2397;53.576;9.746;2023-04-24T01:33:52;5.73;;;5.20;;
4766;SDS011;2397;53.576;9.746;2023-04-24T01:36:19;5.67;;;4.77;;
4766;SDS011;2397;53.576;9.746;2023-04-24T01:38:50;5.60;;;5.20;;
4766;SDS011;2397;53.576;9.746;2023-04-24T01:41:17;6.13;;;5.73;;
4766;SDS011;2397;53.576;9.746;2023-04-24T01:43:43;5.10;;;4.70;;
4766;SDS011;2397;53.576;9.746;2023-04-24T01:46:10;5.27;;;4.87;;
4766;SDS011;2397;53.576;9.746;2023-04-24T01:48:37;5.47;;;5.03;;
4766;SDS011;2397;53.576;9.746;2023-04-24T01:51:04;4.17;;;3.90;;
4766;SDS011;2397;53.576;9.746;2023-04-24T01:53:30;6.70;;;4.33;;
4766;SDS011;2397;53.576;9.746;2023-04-24T01:55:57;4.73;;;4.33;;
4766;SDS011;2397;53.576;9.746;2023-04-24T01:58:24;6.57;;;5.97;;
4766;SDS011;2397;53.576;9.746;2023-04-24T02:00:52;4.70;;;4.40;;
4766;SDS011;2397;53.576;9.746;2023-04-24T02:03:19;4.60;;;3.87;;
4766;SDS011;2397;53.576;9.746;2023-04-24T02:05:47;4.20;;;3.90;;
4766;SDS011;2397;53.576;9.746;2023-04-24T02:08:14;4.20;;;3.90;;
4766;SDS011;2397;53.576;9.746;2023-04-24T02:10:40;3.93;;;3.53;;
4766;SDS011;2397;53.576;9.746;2023-04-24T02:13:07;4.67;;;4.27;;
4766;SDS011;2397;53.576;9.746;2023-04-24T02:15:33;3.93;;;3.53;;
4766;SDS011;2397;53.576;9.746;2023-04-24T02:18:02;3.70;;;3.40;;
4766;SDS011;2397;53.576;9.746;2023-04-24T02:20:30;3.97;;;3.67;;
4766;SDS011;2397;53.576;9.746;2023-04-24T02:22:58;3.70;;;3.40;;
4766;SDS011;2397;53.576;9.746;2023-04-24T02:25:24;2.90;;;2.70;;
4766;SDS011;2397;53.576;9.746;2023-04-24T02:27:54;3.33;;;3.13;;
4766;SDS011;2397;53.576;9.746;2023-04-24T02:30:20;4.97;;;3.20;;
4766;SDS011;2397;53.576;9.746;2023-04-24T02:32:47;3.80;;;3.20;;
4766;SDS011;2397;53.576;9.746;2023-04-24T02:35:14;2.53;;;2.33;;
4766;SDS011;2397;53.576;9.746;2023-04-24T02:37:41;3.43;;;3.13;;
4766;SDS011;2397;53.576;9.746;2023-04-24T02:40:11;3.03;;;2.60;;
4766;SDS011;2397;53.576;9.746;2023-04-24T02:42:38;3.37;;;3.07;;
4766;SDS011;2397;53.576;9.746;2023-04-24T02:45:04;3.20;;;2.90;;
4766;SDS011;2397;53.576;9.746;2023-04-24T02:47:31;3.10;;;2.80;;
4766;SDS011;2397;53.576;9.746;2023-04-24T02:49:59;3.27;;;3.03;;
4766;SDS011;2397;53.576;9.746;2023-04-24T02:52:25;2.73;;;2.60;;
4766;SDS011;2397;53.576;9.746;2023-04-24T02:54:52;3.17;;;2.87;;
4766;SDS011;2397;53.576;9.746;2023-04-24T02:57:20;3.30;;;3.00;;
4766;SDS011;2397;53.576;9.746;2023-04-24T02:59:47;2.83;;;2.63;;
4766;SDS011;2397;53.576;9.746;2023-04-24T03:02:13;2.50;;;2.40;;
4766;SDS011;2397;53.576;9.746;2023-04-24T03:04:40;3.60;;;3.00;;
4766;SDS011;2397;53.576;9.746;2023-04-24T03:07:09;3.10;;;2.90;;
4766;SDS011;2397;53.576;9.746;2023-04-24T03:09:36;3.70;;;3.40;;
4766;SDS011;2397;53.576;9.746;2023-04-24T03:12:02;3.30;;;3.10;;
4766;SDS011;2397;53.576;9.746;2023-04-24T03:14:29;4.10;;;3.80;;
4766;SDS011;2397;53.576;9.746;2023-04-24T03:16:57;3.50;;;3.20;;
4766;SDS011;2397;53.576;9.746;2023-04-24T03:19:24;4.03;;;3.20;;
4766;SDS011;2397;53.576;9.746;2023-04-24T03:22:01;4.47;;;3.50;;
4766;SDS011;2397;53.576;9.746;2023-04-24T03:24:29;5.80;;;3.37;;
4766;SDS011;2397;53.576;9.746;2023-04-24T03:26:57;3.60;;;3.40;;
4766;SDS011;2397;53.576;9.746;2023-04-24T03:29:41;3.33;;;3.13;;
4766;SDS011;2397;53.576;9.746;2023-04-24T03:32:08;3.20;;;3.00;;
4766;SDS011;2397;53.576;9.746;2023-04-24T03:34:36;3.60;;;3.40;;
4766;SDS011;2397;53.576;9.746;2023-04-24T03:37:03;3.50;;;3.07;;
4766;SDS011;2397;53.576;9.746;2023-04-24T03:39:31;3.30;;;3.00;;
4766;SDS011;2397;53.576;9.746;2023-04-24T03:41:57;3.20;;;3.00;;
4766;SDS011;2397;53.576;9.746;2023-04-24T03:44:35;2.60;;;2.40;;
4766;SDS011;2397;53.576;9.746;2023-04-24T03:47:02;3.30;;;3.00;;
4766;SDS011;2397;53.576;9.746;2023-04-24T03:49:30;2.67;;;2.57;;
4766;SDS011;2397;53.576;9.746;2023-04-24T03:51:56;3.67;;;3.37;;
4766;SDS011;2397;53.576;9.746;2023-04-24T03:54:25;3.20;;;3.00;;
4766;SDS011;2397;53.576;9.746;2023-04-24T03:56:53;2.87;;;2.57;;
4766;SDS011;2397;53.576;9.746;2023-04-24T03:59:19;3.20;;;2.90;;
4766;SDS011;2397;53.576;9.746;2023-04-24T04:01:57;3.30;;;3.00;;
4766;SDS011;2397;53.576;9.746;2023-04-24T04:04:23;2.93;;;2.73;;
4766;SDS011;2397;53.576;9.746;2023-04-24T04:06:50;2.60;;;2.40;;
4766;SDS011;2397;53.576;9.746;2023-04-24T04:09:17;2.87;;;2.67;;
4766;SDS011;2397;53.576;9.746;2023-04-24T04:11:44;2.93;;;2.73;;
4766;SDS011;2397;53.576;9.746;2023-04-24T04:14:11;2.97;;;2.77;;
4766;SDS011;2397;53.576;9.746;2023-04-24T04:16:40;3.00;;;2.80;;
4766;SDS011;2397;53.576;9.746;2023-04-24T04:19:07;3.00;;;2.80;;
4766;SDS011;2397;53.576;9.746;2023-04-24T04:21:34;3.50;;;2.70;;
4766;SDS011;2397;53.576;9.746;2023-04-24T04:24:11;2.77;;;2.57;;
4766;SDS011;2397;53.576;9.746;2023-04-24T04:26:42;2.87;;;2.67;;
4766;SDS011;2397;53.576;9.746;2023-04-24T04:29:19;3.40;;;2.70;;
4766;SDS011;2397;53.576;9.746;2023-04-24T04:31:49;2.83;;;2.63;;
4766;SDS011;2397;53.576;9.746;2023-04-24T04:34:16;2.90;;;2.70;;
4766;SDS011;2397;53.576;9.746;2023-04-24T04:36:42;2.90;;;2.70;;
4766;SDS011;2397;53.576;9.746;2023-04-24T04:39:21;2.87;;;2.67;;
4766;SDS011;2397;53.576;9.746;2023-04-24T04:41:56;3.17;;;2.90;;
4766;SDS011;2397;53.576;9.746;2023-04-24T04:44:27;4.00;;;2.40;;
4766;SDS011;2397;53.576;9.746;2023-04-24T04:46:56;2.87;;;2.70;;
4766;SDS011;2397;53.576;9.746;2023-04-24T04:49:29;2.77;;;2.57;;
4766;SDS011;2397;53.576;9.746;2023-04-24T04:51:57;2.87;;;2.30;;
4766;SDS011;2397;53.576;9.746;2023-04-24T04:54:25;2.60;;;2.40;;
4766;SDS011;2397;53.576;9.746;2023-04-24T04:56:52;2.30;;;2.20;;
4766;SDS011;2397;53.576;9.746;2023-04-24T04:59:18;2.90;;;2.70;;
4766;SDS011;2397;53.576;9.746;2023-04-24T05:01:47;2.07;;;1.97;;
4766;SDS011;2397;53.576;9.746;2023-04-24T05:04:15;2.63;;;2.30;;
4766;SDS011;2397;53.576;9.746;2023-04-24T05:06:42;2.60;;;2.40;;
4766;SDS011;2397;53.576;9.746;2023-04-24T05:09:09;2.40;;;2.20;;
4766;SDS011;2397;53.576;9.746;2023-04-24T05:11:46;3.03;;;2.20;;
4766;SDS011;2397;53.576;9.746;2023-04-24T05:14:12;2.50;;;2.33;;
4766;SDS011;2397;53.576;9.746;2023-04-24T05:16:41;2.70;;;2.50;;
4766;SDS011;2397;53.576;9.746;2023-04-24T05:19:09;2.53;;;2.33;;
4766;SDS011;2397;53.576;9.746;2023-04-24T05:21:39;2.40;;;2.20;;
4766;SDS011;2397;53.576;9.746;2023-04-24T05:24:07;2.17;;;2.07;;
4766;SDS011;2397;53.576;9.746;2023-04-24T05:27:02;1.83;;;1.73;;
4766;SDS011;2397;53.576;9.746;2023-04-24T05:29:37;2.30;;;2.10;;
4766;SDS011;2397;53.576;9.746;2023-04-24T05:32:04;2.07;;;1.87;;
4766;SDS011;2397;53.576;9.746;2023-04-24T05:34:31;2.07;;;1.97;;
4766;SDS011;2397;53.576;9.746;2023-04-24T05:36:58;1.93;;;1.63;;
4766;SDS011;2397;53.576;9.746;2023-04-24T05:39:25;2.33;;;2.13;;
4766;SDS011;2397;53.576;9.746;2023-04-24T05:41:53;1.63;;;1.53;;
4766;SDS011;2397;53.576;9.746;2023-04-24T05:44:19;2.10;;;2.00;;
4766;SDS011;2397;53.576;9.746;2023-04-24T05:46:46;2.30;;;1.90;;
4766;SDS011;2397;53.576;9.746;2023-04-24T05:49:13;2.60;;;2.00;;
4766;SDS011;2397;53.576;9.746;2023-04-24T05:51:40;2.13;;;2.03;;
4766;SDS011;2397;53.576;9.746;2023-04-24T05:54:07;2.17;;;1.87;;
4766;SDS011;2397;53.576;9.746;2023-04-24T05:56:34;2.90;;;2.13;;
4766;SDS011;2397;53.576;9.746;2023-04-24T05:59:03;2.33;;;1.90;;
4766;SDS011;2397;53.576;9.746;2023-04-24T06:01:30;1.97;;;1.87;;
4766;SDS011;2397;53.576;9.746;2023-04-24T06:04:05;2.37;;;2.20;;
4766;SDS011;2397;53.576;9.746;2023-04-24T06:06:33;2.30;;;2.10;;
4766;SDS011;2397;53.576;9.746;2023-04-24T06:09:01;2.23;;;2.03;;
4766;SDS011;2397;53.576;9.746;2023-04-24T06:11:29;2.87;;;2.37;;
4766;SDS011;2397;53.576;9.746;2023-04-24T06:13:56;4.17;;;1.93;;
4766;SDS011;2397;53.576;9.746;2023-04-24T06:16:37;2.70;;;2.50;;
4766;SDS011;2397;53.576;9.746;2023-04-24T06:19:15;2.33;;;2.23;;
4766;SDS011;2397;53.576;9.746;2023-04-24T06:21:41;2.80;;;2.40;;
4766;SDS011;2397;53.576;9.746;2023-04-24T06:24:08;1.87;;;1.77;;
4766;SDS011;2397;53.576;9.746;2023-04-24T06:26:35;2.90;;;2.70;;
4766;SDS011;2397;53.576;9.746;2023-04-24T06:29:01;2.20;;;2.10;;
4766;SDS011;2397;53.576;9.746;2023-04-24T06:31:28;2.60;;;2.40;;
4766;SDS011;2397;53.576;9.746;2023-04-24T06:33:55;2.07;;;1.97;;
4766;SDS011;2397;53.576;9.746;2023-04-24T06:36:21;2.70;;;2.50;;
4766;SDS011;2397;53.576;9.746;2023-04-24T06:38:48;3.13;;;2.30;;
4766;SDS011;2397;53.576;9.746;2023-04-24T06:41:14;1.90;;;1.80;;
4766;SDS011;2397;53.576;9.746;2023-04-24T06:43:41;3.13;;;2.23;;
4766;SDS011;2397;53.576;9.746;2023-04-24T06:46:07;2.43;;;2.23;;
4766;SDS011;2397;53.576;9.746;2023-04-24T06:48:34;2.70;;;2.50;;
4766;SDS011;2397;53.576;9.746;2023-04-24T06:51:01;2.73;;;2.53;;
4766;SDS011;2397;53.576;9.746;2023-04-24T06:53:27;2.60;;;2.40;;
4766;SDS011;2397;53.576;9.746;2023-04-24T06:55:54;2.40;;;2.27;;
4766;SDS011;2397;53.576;9.746;2023-04-24T06:58:21;3.50;;;3.10;;
4766;SDS011;2397;53.576;9.746;2023-04-24T07:00:47;2.47;;;2.30;;
4766;SDS011;2397;53.576;9.746;2023-04-24T07:03:14;3.60;;;3.30;;
4766;SDS011;2397;53.576;9.746;2023-04-24T07:05:41;3.00;;;2.80;;
4766;SDS011;2397;53.576;9.746;2023-04-24T07:08:07;3.70;;;3.40;;
4766;SDS011;2397;53.576;9.746;2023-04-24T07:10:37;3.30;;;3.00;;
4766;SDS011;2397;53.576;9.746;2023-04-24T07:13:04;3.90;;;3.20;;
4766;SDS011;2397;53.576;9.746;2023-04-24T07:15:30;4.40;;;4.10;;
4766;SDS011;2397;53.576;9.746;2023-04-24T07:17:58;4.03;;;3.73;;
4766;SDS011;2397;53.576;9.746;2023-04-24T07:20:24;4.60;;;4.20;;
4766;SDS011;2397;53.576;9.746;2023-04-24T07:22:52;4.97;;;4.40;;
4766;SDS011;2397;53.576;9.746;2023-04-24T07:25:20;4.80;;;4.40;;
4766;SDS011;2397;53.576;9.746;2023-04-24T07:27:46;4.50;;;4.20;;
4766;SDS011;2397;53.576;9.746;2023-04-24T07:30:14;4.60;;;4.30;;
4766;SDS011;2397;53.576;9.746;2023-04-24T07:32:41;4.40;;;4.10;;
4766;SDS011;2397;53.576;9.746;2023-04-24T07:35:07;4.90;;;4.50;;
4766;SDS011;2397;53.576;9.746;2023-04-24T07:37:36;5.17;;;4.77;;
4766;SDS011;2397;53.576;9.746;2023-04-24T07:40:02;4.87;;;4.50;;
4766;SDS011;2397;53.576;9.746;2023-04-24T07:42:30;4.63;;;4.23;;
4766;SDS011;2397;53.576;9.746;2023-04-24T07:45:00;4.73;;;4.33;;
4766;SDS011;2397;53.576;9.746;2023-04-24T07:47:27;4.50;;;4.20;;
4766;SDS011;2397;53.576;9.746;2023-04-24T07:49:54;4.40;;;4.10;;
4766;SDS011;2397;53.576;9.746;2023-04-24T07:52:21;5.90;;;5.30;;
4766;SDS011;2397;53.576;9.746;2023-04-24T07:54:47;5.43;;;4.93;;
4766;SDS011;2397;53.576;9.746;2023-04-24T07:57:14;5.77;;;5.17;;
4766;SDS011;2397;53.576;9.746;2023-04-24T07:59:40;5.20;;;4.80;;
4766;SDS011;2397;53.576;9.746;2023-04-24T08:02:07;6.03;;;5.53;;
4766;SDS011;2397;53.576;9.746;2023-04-24T08:04:34;10.03;;;4.90;;
4766;SDS011;2397;53.576;9.746;2023-04-24T08:07:01;4.13;;;3.83;;
4766;SDS011;2397;53.576;9.746;2023-04-24T08:09:27;4.57;;;4.23;;
4766;SDS011;2397;53.576;9.746;2023-04-24T08:11:54;4.00;;;3.70;;
4766;SDS011;2397;53.576;9.746;2023-04-24T08:14:21;4.00;;;3.77;;
4766;SDS011;2397;53.576;9.746;2023-04-24T08:16:47;4.30;;;3.90;;
4766;SDS011;2397;53.576;9.746;2023-04-24T08:19:14;4.23;;;3.87;;
4766;SDS011;2397;53.576;9.746;2023-04-24T08:21:40;4.70;;;3.77;;
4766;SDS011;2397;53.576;9.746;2023-04-24T08:24:07;3.70;;;3.50;;
4766;SDS011;2397;53.576;9.746;2023-04-24T08:26:34;4.07;;;3.63;;
4766;SDS011;2397;53.576;9.746;2023-04-24T08:29:00;5.87;;;4.00;;
4766;SDS011;2397;53.576;9.746;2023-04-24T08:31:27;5.43;;;4.50;;
4766;SDS011;2397;53.576;9.746;2023-04-24T08:33:54;6.10;;;4.40;;
4766;SDS011;2397;53.576;9.746;2023-04-24T08:36:21;5.63;;;5.13;;
4766;SDS011;2397;53.576;9.746;2023-04-24T08:38:51;6.03;;;5.63;;
4766;SDS011;2397;53.576;9.746;2023-04-24T08:41:18;6.43;;;4.97;;
4766;SDS011;2397;53.576;9.746;2023-04-24T08:43:46;5.87;;;5.47;;
4766;SDS011;2397;53.576;9.746;2023-04-24T08:46:12;6.40;;;5.90;;
4766;SDS011;2397;53.576;9.746;2023-04-24T08:48:39;6.20;;;5.70;;
4766;SDS011;2397;53.576;9.746;2023-04-24T08:51:06;5.80;;;5.30;;
4766;SDS011;2397;53.576;9.746;2023-04-24T08:53:34;6.03;;;5.53;;
4766;SDS011;2397;53.576;9.746;2023-04-24T08:56:02;6.30;;;5.80;;
4766;SDS011;2397;53.576;9.746;2023-04-24T08:58:29;6.57;;;6.07;;
4766;SDS011;2397;53.576;9.746;2023-04-24T09:00:57;6.13;;;5.70;;
4766;SDS011;2397;53.576;9.746;2023-04-24T09:03:25;6.13;;;5.73;;
4766;SDS011;2397;53.576;9.746;2023-04-24T09:05:54;8.80;;;7.20;;
4766;SDS011;2397;53.576;9.746;2023-04-24T09:08:24;7.40;;;6.80;;
4766;SDS011;2397;53.576;9.746;2023-04-24T09:10:51;7.10;;;6.40;;
4766;SDS011;2397;53.576;9.746;2023-04-24T09:13:18;7.60;;;7.00;;
4766;SDS011;2397;53.576;9.746;2023-04-24T09:15:46;6.83;;;6.20;;
4766;SDS011;2397;53.576;9.746;2023-04-24T09:18:13;7.67;;;6.97;;
4766;SDS011;2397;53.576;9.746;2023-04-24T09:23:27;7.00;;;6.37;;
4766;SDS011;2397;53.576;9.746;2023-04-24T09:25:58;6.90;;;6.30;;
4766;SDS011;2397;53.576;9.746;2023-04-24T09:28:27;6.00;;;5.60;;
4766;SDS011;2397;53.576;9.746;2023-04-24T09:31:07;7.20;;;6.50;;
4766;SDS011;2397;53.576;9.746;2023-04-24T09:33:35;6.90;;;6.30;;
4766;SDS011;2397;53.576;9.746;2023-04-24T09:36:02;7.43;;;6.83;;
4766;SDS011;2397;53.576;9.746;2023-04-24T09:38:34;7.93;;;7.07;;
4766;SDS011;2397;53.576;9.746;2023-04-24T09:41:05;8.00;;;7.30;;
4766;SDS011;2397;53.576;9.746;2023-04-24T09:43:33;8.53;;;7.73;;
4766;SDS011;2397;53.576;9.746;2023-04-24T09:46:05;7.87;;;7.17;;
4766;SDS011;2397;53.576;9.746;2023-04-24T09:48:34;7.93;;;7.13;;
4766;SDS011;2397;53.576;9.746;2023-04-24T09:51:03;7.10;;;6.50;;
4766;SDS011;2397;53.576;9.746;2023-04-24T09:53:32;8.87;;;7.00;;
4766;SDS011;2397;53.576;9.746;2023-04-24T09:56:05;8.30;;;7.40;;
4766;SDS011;2397;53.576;9.746;2023-04-24T09:58:34;7.50;;;6.70;;
4766;SDS011;2397;53.576;9.746;2023-04-24T10:01:02;8.90;;;8.10;;
4766;SDS011;2397;53.576;9.746;2023-04-24T10:03:29;8.97;;;7.67;;
4766;SDS011;2397;53.576;9.746;2023-04-24T10:06:00;12.20;;;7.60;;
4766;SDS011;2397;53.576;9.746;2023-04-24T10:08:34;9.23;;;8.17;;
4766;SDS011;2397;53.576;9.746;2023-04-24T10:11:02;7.97;;;7.27;;
4766;SDS011;2397;53.576;9.746;2023-04-24T10:13:29;8.50;;;7.70;;
4766;SDS011;2397;53.576;9.746;2023-04-24T10:15:56;8.70;;;7.90;;
4766;SDS011;2397;53.576;9.746;2023-04-24T10:18:26;10.30;;;8.17;;
4766;SDS011;2397;53.576;9.746;2023-04-24T10:20:53;9.20;;;8.40;;
4766;SDS011;2397;53.576;9.746;2023-04-24T10:23:21;9.77;;;8.87;;
4766;SDS011;2397;53.576;9.746;2023-04-24T10:25:48;9.97;;;8.67;;
4766;SDS011;2397;53.576;9.746;2023-04-24T10:28:15;9.00;;;8.20;;
4766;SDS011;2397;53.576;9.746;2023-04-24T10:30:44;10.40;;;9.40;;
4766;SDS011;2397;53.576;9.746;2023-04-24T10:33:11;11.10;;;10.10;;
4766;SDS011;2397;53.576;9.746;2023-04-24T10:35:41;11.10;;;9.83;;
4766;SDS011;2397;53.576;9.746;2023-04-24T10:38:12;10.40;;;9.40;;
4766;SDS011;2397;53.576;9.746;2023-04-24T10:40:40;11.60;;;10.40;;
4766;SDS011;2397;53.576;9.746;2023-04-24T10:43:08;11.27;;;9.53;;
4766;SDS011;2397;53.576;9.746;2023-04-24T10:45:38;10.97;;;9.80;;
4766;SDS011;2397;53.576;9.746;2023-04-24T10:48:06;12.30;;;9.90;;
4766;SDS011;2397;53.576;9.746;2023-04-24T10:50:44;12.40;;;9.50;;
4766;SDS011;2397;53.576;9.746;2023-04-24T10:53:12;12.10;;;10.23;;
4766;SDS011;2397;53.576;9.746;2023-04-24T10:58:10;13.00;;;10.50;;
4766;SDS011;2397;53.576;9.746;2023-04-24T11:00:38;13.33;;;11.97;;
4766;SDS011;2397;53.576;9.746;2023-04-24T11:03:07;12.00;;;10.00;;
4766;SDS011;2397;53.576;9.746;2023-04-24T11:08:38;14.80;;;10.93;;
4766;SDS011;2397;53.576;9.746;2023-04-24T11:16:21;14.07;;;10.60;;
4766;SDS011;2397;53.576;9.746;2023-04-24T11:19:17;13.20;;;10.90;;
4766;SDS011;2397;53.576;9.746;2023-04-24T11:24:29;12.37;;;10.10;;
4766;SDS011;2397;53.576;9.746;2023-04-24T11:26:58;12.50;;;10.30;;
4766;SDS011;2397;53.576;9.746;2023-04-24T11:35:02;12.30;;;10.40;;
4766;SDS011;2397;53.576;9.746;2023-04-24T11:37:35;11.37;;;10.23;;
4766;SDS011;2397;53.576;9.746;2023-04-24T11:40:04;9.53;;;8.53;;
4766;SDS011;2397;53.576;9.746;2023-04-24T11:42:43;13.43;;;10.73;;
4766;SDS011;2397;53.576;9.746;2023-04-24T11:45:11;10.67;;;9.67;;
4766;SDS011;2397;53.576;9.746;2023-04-24T11:47:42;9.93;;;8.93;;
4766;SDS011;2397;53.576;9.746;2023-04-24T11:50:20;8.87;;;7.97;;
4766;SDS011;2397;53.576;9.746;2023-04-24T11:52:49;10.87;;;7.70;;
4766;SDS011;2397;53.576;9.746;2023-04-24T11:57:46;9.90;;;7.63;;
4766;SDS011;2397;53.576;9.746;2023-04-24T12:00:17;8.87;;;8.07;;
4766;SDS011;2397;53.576;9.746;2023-04-24T12:02:48;8.60;;;7.80;;
4766;SDS011;2397;53.576;9.746;2023-04-24T12:05:23;9.97;;;8.97;;
4766;SDS011;2397;53.576;9.746;2023-04-24T12:07:53;8.60;;;7.90;;
4766;SDS011;2397;53.576;9.746;2023-04-24T12:10:23;8.33;;;7.57;;
4766;SDS011;2397;53.576;9.746;2023-04-24T12:12:51;8.03;;;7.17;;
4766;SDS011;2397;53.576;9.746;2023-04-24T12:15:20;8.47;;;7.73;;
4766;SDS011;2397;53.576;9.746;2023-04-24T12:17:47;7.17;;;6.57;;
4766;SDS011;2397;53.576;9.746;2023-04-24T12:20:16;8.17;;;7.40;;
4766;SDS011;2397;53.576;9.746;2023-04-24T12:22:44;7.00;;;6.40;;
4766;SDS011;2397;53.576;9.746;2023-04-24T12:25:14;8.37;;;7.57;;
4766;SDS011;2397;53.576;9.746;2023-04-24T12:27:42;6.90;;;6.30;;
4766;SDS011;2397;53.576;9.746;2023-04-24T12:30:13;8.00;;;7.20;;
4766;SDS011;2397;53.576;9.746;2023-04-24T12:32:45;8.37;;;7.50;;
4766;SDS011;2397;53.576;9.746;2023-04-24T12:35:18;7.97;;;7.27;;
4766;SDS011;2397;53.576;9.746;2023-04-24T12:37:47;7.73;;;6.93;;
4766;SDS011;2397;53.576;9.746;2023-04-24T12:40:14;8.83;;;8.03;;
4766;SDS011;2397;53.576;9.746;2023-04-24T12:42:42;8.60;;;7.87;;
4766;SDS011;2397;53.576;9.746;2023-04-24T12:45:10;13.10;;;7.87;;
4766;SDS011;2397;53.576;9.746;2023-04-24T12:47:38;9.50;;;8.60;;
4766;SDS011;2397;53.576;9.746;2023-04-24T12:50:10;9.03;;;8.23;;
4766;SDS011;2397;53.576;9.746;2023-04-24T12:52:38;9.90;;;7.93;;
4766;SDS011;2397;53.576;9.746;2023-04-24T12:55:06;8.90;;;8.10;;
4766;SDS011;2397;53.576;9.746;2023-04-24T12:57:38;9.60;;;8.67;;
4766;SDS011;2397;53.576;9.746;2023-04-24T13:00:06;8.77;;;7.90;;
4766;SDS011;2397;53.576;9.746;2023-04-24T13:02:34;8.87;;;7.97;;
4766;SDS011;2397;53.576;9.746;2023-04-24T13:05:01;8.87;;;8.00;;
4766;SDS011;2397;53.576;9.746;2023-04-24T13:07:28;9.57;;;8.57;;
4766;SDS011;2397;53.576;9.746;2023-04-24T13:09:55;12.07;;;8.33;;
4766;SDS011;2397;53.576;9.746;2023-04-24T13:12:22;10.70;;;9.53;;
4766;SDS011;2397;53.576;9.746;2023-04-24T13:14:53;13.20;;;10.40;;
4766;SDS011;2397;53.576;9.746;2023-04-24T13:17:20;11.10;;;10.00;;
4766;SDS011;2397;53.576;9.746;2023-04-24T13:19:49;14.37;;;10.07;;
4766;SDS011;2397;53.576;9.746;2023-04-24T13:22:16;9.80;;;8.80;;
4766;SDS011;2397;53.576;9.746;2023-04-24T13:24:45;9.87;;;8.97;;
4766;SDS011;2397;53.576;9.746;2023-04-24T13:27:11;9.90;;;9.00;;
4766;SDS011;2397;53.576;9.746;2023-04-24T13:29:38;10.10;;;9.10;;
4766;SDS011;2397;53.576;9.746;2023-04-24T13:32:04;10.17;;;9.07;;
4766;SDS011;2397;53.576;9.746;2023-04-24T13:34:31;9.47;;;8.60;;
4766;SDS011;2397;53.576;9.746;2023-04-24T13:36:58;9.40;;;8.50;;
4766;SDS011;2397;53.576;9.746;2023-04-24T13:39:25;9.50;;;8.50;;
4766;SDS011;2397;53.576;9.746;2023-04-24T13:41:53;13.03;;;8.53;;
4766;SDS011;2397;53.576;9.746;2023-04-24T13:44:20;9.00;;;8.20;;
4766;SDS011;2397;53.576;9.746;2023-04-24T13:46:48;10.43;;;9.43;;
4766;SDS011;2397;53.576;9.746;2023-04-24T13:49:18;10.23;;;8.50;;
4766;SDS011;2397;53.576;9.746;2023-04-24T13:51:45;8.97;;;8.17;;
4766;SDS011;2397;53.576;9.746;2023-04-24T13:54:12;9.10;;;8.20;;
4766;SDS011;2397;53.576;9.746;2023-04-24T13:56:39;9.00;;;8.20;;
4766;SDS011;2397;53.576;9.746;2023-04-24T13:59:06;9.47;;;8.57;;
4766;SDS011;2397;53.576;9.746;2023-04-24T14:01:33;8.57;;;7.77;;
4766;SDS011;2397;53.576;9.746;2023-04-24T14:04:00;9.37;;;8.53;;
4766;SDS011;2397;53.576;9.746;2023-04-24T14:06:27;8.50;;;7.70;;
4766;SDS011;2397;53.576;9.746;2023-04-24T14:08:53;8.90;;;7.90;;
4766;SDS011;2397;53.576;9.746;2023-04-24T14:11:20;9.50;;;8.60;;
4766;SDS011;2397;53.576;9.746;2023-04-24T14:13:47;10.40;;;9.30;;
4766;SDS011;2397;53.576;9.746;2023-04-24T14:16:13;9.53;;;8.60;;
4766;SDS011;2397;53.576;9.746;2023-04-24T14:18:41;11.17;;;9.27;;
4766;SDS011;2397;53.576;9.746;2023-04-24T14:21:07;11.13;;;10.03;;
4766;SDS011;2397;53.576;9.746;2023-04-24T14:23:34;10.90;;;9.77;;
4766;SDS011;2397;53.576;9.746;2023-04-24T14:26:00;11.97;;;10.70;;
4766;SDS011;2397;53.576;9.746;2023-04-24T14:28:27;13.63;;;10.70;;
4766;SDS011;2397;53.576;9.746;2023-04-24T14:30:54;9.70;;;8.70;;
4766;SDS011;2397;53.576;9.746;2023-04-24T14:33:21;11.40;;;10.30;;
4766;SDS011;2397;53.576;9.746;2023-04-24T14:35:47;11.40;;;9.90;;
4766;SDS011;2397;53.576;9.746;2023-04-24T14:38:14;9.90;;;8.90;;
4766;SDS011;2397;53.576;9.746;2023-04-24T14:40:41;10.57;;;9.27;;
4766;SDS011;2397;53.576;9.746;2023-04-24T14:43:11;10.47;;;9.37;;
4766;SDS011;2397;53.576;9.746;2023-04-24T14:45:37;8.77;;;7.80;;
4766;SDS011;2397;53.576;9.746;2023-04-24T14:48:04;10.37;;;8.50;;
4766;SDS011;2397;53.576;9.746;2023-04-24T14:50:31;12.07;;;9.17;;
4766;SDS011;2397;53.576;9.746;2023-04-24T14:52:58;11.33;;;8.90;;
4766;SDS011;2397;53.576;9.746;2023-04-24T14:55:25;8.17;;;7.37;;
4766;SDS011;2397;53.576;9.746;2023-04-24T14:57:52;8.50;;;6.70;;
4766;SDS011;2397;53.576;9.746;2023-04-24T15:00:19;3.97;;;3.67;;
4766;SDS011;2397;53.576;9.746;2023-04-24T15:02:46;3.70;;;3.40;;
4766;SDS011;2397;53.576;9.746;2023-04-24T15:05:13;3.77;;;3.40;;
4766;SDS011;2397;53.576;9.746;2023-04-24T15:07:40;5.43;;;4.77;;
4766;SDS011;2397;53.576;9.746;2023-04-24T15:10:09;4.13;;;3.53;;
4766;SDS011;2397;53.576;9.746;2023-04-24T15:12:36;5.10;;;4.60;;
4766;SDS011;2397;53.576;9.746;2023-04-24T15:15:03;4.60;;;4.20;;
4766;SDS011;2397;53.576;9.746;2023-04-24T15:17:30;4.93;;;4.37;;
4766;SDS011;2397;53.576;9.746;2023-04-24T15:19:56;4.70;;;4.33;;
4766;SDS011;2397;53.576;9.746;2023-04-24T15:22:23;5.33;;;4.83;;
4766;SDS011;2397;53.576;9.746;2023-04-24T15:24:49;5.30;;;4.80;;
4766;SDS011;2397;53.576;9.746;2023-04-24T15:27:16;4.73;;;4.33;;
4766;SDS011;2397;53.576;9.746;2023-04-24T15:29:42;6.30;;;4.93;;
4766;SDS011;2397;53.576;9.746;2023-04-24T15:32:09;8.43;;;6.93;;
4766;SDS011;2397;53.576;9.746;2023-04-24T15:34:36;9.90;;;8.37;;
4766;SDS011;2397;53.576;9.746;2023-04-24T15:37:02;15.60;;;9.13;;
4766;SDS011;2397;53.576;9.746;2023-04-24T15:39:29;13.60;;;8.97;;
4766;SDS011;2397;53.576;9.746;2023-04-24T15:41:56;9.40;;;8.43;;